Nearby METAR Reports

 

KAGC - Pittsburgh/Alleg, Pennsylvania, USA
Distance from station: N 14mi, 23km
Updated: Wed, Dec-01-2021 11:53am EST
Clear
Clear
 Wind from SW
Wind: SW 8 mph , 13 km/h
Temperature: 46°F , 8°C
Wind Chill: 42°F , 6°C
Dew Point: 28°F , -2°C
Humidity: 50%
Barometer: 30.10 inHg , 1019.3 hPa
Clouds: Clear
Visibility: 9 miles , 14 km
2021/12/01 16:53 KAGC 011653Z AUTO 22007KT 9SM CLR 08/M02 A3010 RMK AO2 SLP203 T00781017
KAFJ - Washington, Pennsylvania, USA
Distance from station: W 17mi, 28km
Updated: Wed, Dec-01-2021 11:56am EST
Clear
Clear
 Wind from SSW
Wind: SSW 7 mph , 11 km/h
Temperature: 48°F , 9°C
Wind Chill: 45°F , 7°C
Dew Point: 30°F , -1°C
Humidity: 50%
Barometer: 30.13 inHg , 1020.3 hPa
Clouds: Clear
Visibility: 10 miles , 16 km
2021/12/01 16:56 KAFJ 011656Z AUTO 20006KT 10SM CLR 09/M01 A3013 RMK AO2 SLP207 T00891006
 
KLBE - Latrobe, Pennsylvania, USA
Distance from station: ENE 30mi, 48km
Updated: Wed, Dec-01-2021 12:47pm EST
Clear
Clear
 Wind from SW
Wind: SW 8 mph , 13 km/h
Temperature: 48°F , 9°C
Wind Chill: 44°F , 7°C
Dew Point: 30°F , -1°C
Humidity: 50%
Barometer: 30.09 inHg , 1019 hPa
Clouds: Clear
Visibility: 20 miles , 32 km
2021/12/01 17:47 KLBE 011747Z 22007KT 20SM CLR 09/M01 A3009
KPIT - Pittsburgh, Pennsylvania, USA
Distance from station: NW 30mi, 48km
Updated: Wed, Dec-01-2021 11:51am EST
Overcast
Overcast
 Wind from SW
Wind: SW 9 mph , 15 km/h
Temperature: 45°F , 7°C
Wind Chill: 40°F , 4°C
Dew Point: 28°F , -2°C
Humidity: 53%
Barometer: 30.10 inHg , 1019.3 hPa
Clouds: Overcast
Visibility: 10 miles , 16 km
Cloud details: Partly cloudy 12000 ft
Overcast 22000 ft
2021/12/01 16:51 KPIT 011651Z 22008KT 10SM SCT120 OVC220 07/M02 A3010 RMK AO2 SLP207 T00671017
 
KMGW - Morgantown, West Virginia, USA
Distance from station: S 34mi, 55km
Updated: Wed, Dec-01-2021 11:53am EST
Few Clouds
Few Clouds
 Wind from S
Wind: S 5 mph , 7 km/h
Temperature: 46°F , 8°C
Wind Chill: 44°F , 7°C
Dew Point: 28°F , -2°C
Humidity: 50%
Barometer: 30.12 inHg , 1020 hPa
Clouds: Few Clouds
Visibility: 10 miles , 16 km
Cloud details: Few Clouds 12000 ft
2021/12/01 16:53 KMGW 011653Z 19004KT 10SM FEW120 08/M02 A3012 RMK AO2 SLP205 T00831017
KHLG - Wheeling, West Virginia, USA
Distance from station: W 37mi, 60km
Updated: Wed, Dec-01-2021 11:53am EST
Clear
Clear
 Wind from SW
Wind: SW 10 mph , 17 km/h
Temperature: 46°F , 8°C
Wind Chill: 41°F , 5°C
Dew Point: 30°F , -1°C
Humidity: 53%
Barometer: 30.10 inHg , 1019.3 hPa
Clouds: Clear
Visibility: 10 miles , 16 km
2021/12/01 16:53 KHLG 011653Z 23009KT 10SM CLR 08/M01 A3010 RMK AO2 SLP200 T00831006
 
KBTP - Butler Co., Pennsylvania, USA
Distance from station: N 43mi, 69km
Updated: Wed, Dec-01-2021 11:56am EST
Clear
Clear
 Wind from SSW
Wind: SSW 6 mph , 9 km/h
Temperature: 43°F , 6°C
Wind Chill: 39°F , 4°C
Dew Point: 32°F , 0°C
Humidity: 66%
Barometer: 30.11 inHg , 1019.6 hPa
Clouds: Clear
Visibility: 10 miles , 16 km
2021/12/01 16:56 KBTP 011656Z AUTO 21005KT 10SM CLR 06/00 A3011 RMK AO2 SLP208 T00610000
KBVI - Beaver Falls Arp, Pennsylvania, USA
Distance from station: NNW 49mi, 79km
Updated: Wed, Dec-01-2021 12:47pm EST
Clear
Clear
 Wind from S
Wind: S 8 mph , 13 km/h
Temperature: 46°F , 8°C
Wind Chill: 42°F , 6°C
Dew Point: 30°F , -1°C
Humidity: 53%
Barometer: 30.05 inHg , 1017.6 hPa
Clouds: Clear
Visibility: 10 miles , 16 km
2021/12/01 17:47 KBVI 011747Z AUTO 19007KT 10SM CLR 08/M01 A3005
 
K2G4 - Garrett Co, Maryland, USA
Distance from station: SE 51mi, 82km
Updated: Wed, Dec-01-2021 12:35pm EST
Mostly cloudy
Mostly cloudy
 Wind from SW
Wind: SW 8 mph , 13 km/h
Temperature: 43°F , 6°C
Wind Chill: 38°F , 3°C
Dew Point: 23°F , -5°C
Humidity: 46%
Barometer: 30.07 inHg , 1018.3 hPa
Clouds: Mostly cloudy
Visibility: 10 miles , 16 km
Cloud details: Mostly cloudy 8000 ft
Mostly cloudy 10000 ft
2021/12/01 17:35 K2G4 011735Z AUTO 22007KT 10SM BKN080 BKN100 06/M05 A3007 RMK AO1
KIDI - Indiana/Stewart, Pennsylvania, USA
Distance from station: NE 56mi, 90km
Updated: Wed, Dec-01-2021 12:35pm EST
Clear
Clear
 Wind from WSW
Wind: WSW 6 mph , 9 km/h
Temperature: 43°F , 6°C
Wind Chill: 39°F , 4°C
Dew Point: 32°F , 0°C
Humidity: 66%
Barometer: 30.12 inHg , 1020 hPa
Clouds: Clear
Visibility: 10 miles , 16 km
2021/12/01 17:35 KIDI 011735Z AUTO 25005KT 10SM CLR 06/00 A3012 RMK A01
 
KJST - Johnstown, Pennsylvania, USA
Distance from station: ENE 60mi, 96km
Updated: Wed, Dec-01-2021 11:54am EST
Clear
Clear
 Wind from WSW
Wind: WSW 3 mph , 6 km/h
Temperature: 39°F , 4°C
Dew Point: 27°F , -3°C
Humidity: 61%
Barometer: 30.07 inHg , 1018.3 hPa
Clouds: Clear
Visibility: 10 miles , 16 km
2021/12/01 16:54 KJST 011654Z AUTO 24003KT 10SM CLR 04/M03 A3007 RMK AO2 SLP198 T00441033
KCBE - Cumberland Reg, Maryland, USA
Distance from station: ESE 72mi, 116km
Updated: Wed, Dec-01-2021 12:35pm EST
Clear
Clear
 Wind from calm
Wind: Calm
Temperature: 46°F , 8°C
Dew Point: 30°F , -1°C
Humidity: 53%
Barometer: 30.17 inHg , 1021.7 hPa
Clouds: Clear
Visibility: 10 miles , 16 km
2021/12/01 17:35 KCBE 011735Z AUTO 00000KT 10SM CLR 08/M01 A3017 RMK AO2 T00761006
 
KILG - Wilmington, Delaware, USA
Distance from station: ESE 234mi, 377km
Updated: Wed, Dec-01-2021 11:51am EST
Clear
Clear
 Wind from WNW
Wind: WNW 6 mph , 9 km/h
Temperature: 50°F , 10°C
Wind Chill: 48°F , 9°C
Dew Point: 28°F , -2°C
Humidity: 43%
Barometer: 30.20 inHg , 1022.7 hPa
Clouds: Clear
Visibility: 10 miles , 16 km
2021/12/01 16:51 KILG 011651Z 29005KT 10SM CLR 10/M02 A3020 RMK AO2 SLP227 T01001017
KTUS - Tucson, Arizona, USA
Distance from station: WSW 1806mi, 3283km
Updated: Wed, Dec-01-2021 11:53am EST
Clear
Clear
 Wind from SSE
Wind: SSE 7 mph , 11 km/h
Temperature: 70°F , 21°C
Dew Point: 34°F , 1°C
Humidity: 27%
Barometer: 30.20 inHg , 1022.7 hPa
Clouds: Clear
Visibility: 10 miles , 16 km
2021/12/01 16:53 KTUS 011653Z 15006KT 10SM CLR 21/01 A3020 RMK AO2 SLP200 T02060006